Time;durP1;ratioP1;P1;durP2;ratioP2;P2;SDS_P1;SDS_P2;PMS_P1;PMS_P2;Temp;Humidity;BMP_temperature;BMP_pressure;BME280_temperature;BME280_humidity;BME280_pressure;Samples;Min_cycle;Max_cycle;Signal;HPM_P1;HPM_P2
2022/01/11 00:02:56;;;;;;;22.20;18.30;;;;;;;;;;6112072;28;20247;-66
2022/01/11 00:06:27;;;;;;;21.20;17.60;;;;;;;;;;6096756;28;20232;-65
2022/01/11 00:09:50;;;;;;;20.67;17.77;;;;;;;;;;6121861;28;20263;-66
2022/01/11 00:13:12;;;;;;;23.00;18.07;;;;;;;;;;6109439;28;20236;-65
2022/01/11 00:16:32;;;;;;;22.30;18.47;;;;;;;;;;6099866;28;20227;-66
2022/01/11 00:19:53;;;;;;;23.07;18.37;;;;;;;;;;6110885;28;21179;-66
2022/01/11 00:26:52;;;;;;;20.47;16.70;;;;;;;;;;6081239;28;20228;-65
2022/01/11 00:30:14;;;;;;;18.57;16.57;;;;;;;;;;6104945;28;20232;-64
2022/01/11 00:33:38;;;;;;;20.83;18.23;;;;;;;;;;6107670;28;20330;-66
2022/01/11 00:36:59;;;;;;;20.83;17.70;;;;;;;;;;6102592;28;20233;-65
2022/01/11 00:40:19;;;;;;;20.50;17.50;;;;;;;;;;6091279;28;20236;-64
2022/01/11 00:43:41;;;;;;;20.13;17.00;;;;;;;;;;6108923;28;20536;-66
2022/01/11 00:47:03;;;;;;;23.00;18.30;;;;;;;;;;6117699;28;20577;-65
2022/01/11 00:50:25;;;;;;;17.93;15.93;;;;;;;;;;6114250;28;20244;-64
2022/01/11 00:53:45;;;;;;;20.13;16.80;;;;;;;;;;6112916;28;20235;-65
2022/01/11 00:57:08;;;;;;;19.47;16.27;;;;;;;;;;6109771;28;20239;-65
2022/01/11 01:00:29;;;;;;;20.13;16.90;;;;;;;;;;6107389;28;20235;-65
2022/01/11 01:03:51;;;;;;;19.03;16.30;;;;;;;;;;6108567;28;20247;-65
2022/01/11 01:07:12;;;;;;;18.93;16.83;;;;;;;;;;6105372;28;20327;-65
2022/01/11 01:10:37;;;;;;;18.03;16.13;;;;;;;;;;6103657;28;20235;-66
2022/01/11 01:13:59;;;;;;;17.87;15.10;;;;;;;;;;6102668;28;20322;-66
2022/01/11 01:17:19;;;;;;;17.07;15.23;;;;;;;;;;6105917;28;20249;-65
2022/01/11 01:20:41;;;;;;;19.73;17.57;;;;;;;;;;6113257;28;20227;-66
2022/01/11 01:24:02;;;;;;;17.30;15.37;;;;;;;;;;6108803;28;20252;-66
2022/01/11 01:27:22;;;;;;;18.23;16.27;;;;;;;;;;6104606;29;21057;-66
2022/01/11 01:30:43;;;;;;;19.17;15.27;;;;;;;;;;6107581;28;20240;-65
2022/01/11 01:34:03;;;;;;;19.40;16.87;;;;;;;;;;6106352;28;20232;-66
2022/01/11 01:37:25;;;;;;;17.80;15.90;;;;;;;;;;6107921;28;20239;-65
2022/01/11 01:40:47;;;;;;;16.73;15.03;;;;;;;;;;6106563;28;20264;-66
2022/01/11 01:44:07;;;;;;;21.00;16.80;;;;;;;;;;6097314;28;20259;-66
2022/01/11 01:47:28;;;;;;;17.97;16.10;;;;;;;;;;6106434;28;20240;-66
2022/01/11 01:50:50;;;;;;;19.43;16.60;;;;;;;;;;6120642;28;20236;-66
2022/01/11 01:54:14;;;;;;;22.17;17.17;;;;;;;;;;6097001;28;20538;-66
2022/01/11 01:57:35;;;;;;;25.60;19.63;;;;;;;;;;6120257;28;20227;-66
2022/01/11 02:01:02;;;;;;;21.83;18.70;;;;;;;;;;6103264;28;20231;-65
2022/01/11 02:04:23;;;;;;;22.60;18.67;;;;;;;;;;6104529;28;20326;-67
2022/01/11 02:07:43;;;;;;;28.33;19.80;;;;;;;;;;6106895;28;20243;-65
2022/01/11 02:11:05;;;;;;;23.17;19.33;;;;;;;;;;6122536;28;20239;-66
2022/01/11 02:14:27;;;;;;;28.37;22.03;;;;;;;;;;6095424;29;20232;-66
2022/01/11 02:17:49;;;;;;;20.07;17.53;;;;;;;;;;6080318;29;20241;-66
2022/01/11 02:21:12;;;;;;;22.63;19.33;;;;;;;;;;6094147;28;20268;-66
2022/01/11 02:24:34;;;;;;;21.20;17.17;;;;;;;;;;6089443;28;20232;-66
2022/01/11 02:27:57;;;;;;;24.50;18.67;;;;;;;;;;6061383;29;20236;-66
2022/01/11 02:31:18;;;;;;;20.50;16.83;;;;;;;;;;6116685;28;20236;-67
2022/01/11 02:34:43;;;;;;;20.47;18.10;;;;;;;;;;6088771;28;20647;-67
2022/01/11 02:38:22;;;;;;;21.10;18.20;;;;;;;;;;6117098;28;20232;-65
2022/01/11 02:41:49;;;;;;;19.90;17.87;;;;;;;;;;6116136;28;20231;-66
2022/01/11 02:45:14;;;;;;;26.10;21.17;;;;;;;;;;6118598;28;20243;-67
2022/01/11 02:48:35;;;;;;;25.33;21.00;;;;;;;;;;6105290;28;20665;-66
2022/01/11 02:51:55;;;;;;;22.03;18.07;;;;;;;;;;6119014;28;20235;-66
2022/01/11 02:55:18;;;;;;;25.67;17.73;;;;;;;;;;6106938;28;20248;-66
2022/01/11 02:58:40;;;;;;;25.07;18.93;;;;;;;;;;6119420;28;20617;-65
2022/01/11 03:02:03;;;;;;;23.07;18.00;;;;;;;;;;6104284;28;20228;-66
2022/01/11 03:05:24;;;;;;;22.37;18.53;;;;;;;;;;6117250;28;20235;-66
2022/01/11 03:08:47;;;;;;;24.43;19.43;;;;;;;;;;6114871;28;20244;-67
2022/01/11 03:12:13;;;;;;;23.80;19.77;;;;;;;;;;6104236;28;20268;-67
2022/01/11 03:15:35;;;;;;;24.70;18.33;;;;;;;;;;6117301;28;20517;-66
2022/01/11 03:18:59;;;;;;;25.70;20.73;;;;;;;;;;6117010;28;20368;-66
2022/01/11 03:22:19;;;;;;;25.73;19.90;;;;;;;;;;6107214;28;20228;-65
2022/01/11 03:25:40;;;;;;;26.07;19.60;;;;;;;;;;6106752;28;20237;-66
2022/01/11 03:29:04;;;;;;;25.87;19.90;;;;;;;;;;6124495;28;20606;-66
2022/01/11 03:32:25;;;;;;;26.60;20.93;;;;;;;;;;6121127;28;20236;-67
2022/01/11 03:35:46;;;;;;;25.17;20.73;;;;;;;;;;6121544;28;20228;-66
2022/01/11 03:39:07;;;;;;;24.93;17.67;;;;;;;;;;6100223;28;20231;-68
2022/01/11 03:42:27;;;;;;;28.93;21.20;;;;;;;;;;6106198;28;20228;-66
2022/01/11 03:45:50;;;;;;;25.67;19.27;;;;;;;;;;6122674;28;20606;-67
2022/01/11 03:49:12;;;;;;;25.80;21.57;;;;;;;;;;6111695;28;20259;-66
2022/01/11 03:52:33;;;;;;;26.30;19.10;;;;;;;;;;6110134;28;20251;-66
2022/01/11 03:56:21;;;;;;;28.80;21.77;;;;;;;;;;6110036;28;20346;-67
2022/01/11 03:59:42;;;;;;;23.43;19.20;;;;;;;;;;6109566;28;20255;-66
2022/01/11 04:03:05;;;;;;;27.00;18.37;;;;;;;;;;6120331;28;20227;-66
2022/01/11 04:06:26;;;;;;;28.57;20.83;;;;;;;;;;6112314;28;20240;-66
2022/01/11 04:09:47;;;;;;;27.17;21.87;;;;;;;;;;6109700;28;20239;-65
2022/01/11 04:13:07;;;;;;;30.20;22.17;;;;;;;;;;6106764;28;20831;-66
2022/01/11 04:16:29;;;;;;;25.70;20.37;;;;;;;;;;6103218;28;20239;-66
2022/01/11 04:19:53;;;;;;;28.20;21.00;;;;;;;;;;6118936;28;20231;-67
2022/01/11 04:23:14;;;;;;;29.53;23.33;;;;;;;;;;6119545;28;20245;-65
2022/01/11 04:26:35;;;;;;;30.60;23.60;;;;;;;;;;6106603;28;20231;-67
2022/01/11 04:29:59;;;;;;;30.43;21.33;;;;;;;;;;6119977;28;20235;-67
2022/01/11 04:33:20;;;;;;;33.37;22.93;;;;;;;;;;6106892;28;20236;-66
2022/01/11 04:36:42;;;;;;;38.23;24.47;;;;;;;;;;6116403;28;20599;-66
2022/01/11 04:40:03;;;;;;;36.00;25.37;;;;;;;;;;6109005;28;20232;-66
2022/01/11 04:43:30;;;;;;;42.67;25.40;;;;;;;;;;6118174;28;20458;-67
2022/01/11 04:46:51;;;;;;;32.17;25.13;;;;;;;;;;6119675;28;20259;-66
2022/01/11 04:50:12;;;;;;;40.17;26.13;;;;;;;;;;6105244;28;20337;-66
2022/01/11 04:53:35;;;;;;;38.43;26.10;;;;;;;;;;6120495;28;21430;-66
2022/01/11 04:56:56;;;;;;;33.07;23.33;;;;;;;;;;6119585;28;20252;-66
2022/01/11 05:00:18;;;;;;;40.20;24.70;;;;;;;;;;6110136;28;20508;-66
2022/01/11 05:03:38;;;;;;;52.67;27.90;;;;;;;;;;6110113;28;20606;-66
2022/01/11 05:06:59;;;;;;;40.43;26.77;;;;;;;;;;6123589;28;20232;-67
2022/01/11 05:10:21;;;;;;;38.70;25.73;;;;;;;;;;6113025;28;20240;-66
2022/01/11 05:13:42;;;;;;;52.23;25.83;;;;;;;;;;6117427;28;20224;-66
2022/01/11 05:17:18;;;;;;;41.07;25.23;;;;;;;;;;6106413;28;20661;-67
2022/01/11 05:20:39;;;;;;;38.90;26.30;;;;;;;;;;6106616;28;20260;-67
2022/01/11 05:24:02;;;;;;;44.93;26.20;;;;;;;;;;6107249;28;20259;-67
2022/01/11 05:27:23;;;;;;;42.87;27.70;;;;;;;;;;6106275;28;20232;-66
2022/01/11 05:30:44;;;;;;;51.73;26.97;;;;;;;;;;6108509;28;20228;-66
2022/01/11 05:34:04;;;;;;;46.03;25.57;;;;;;;;;;6115838;28;20235;-67
2022/01/11 05:37:25;;;;;;;37.47;23.57;;;;;;;;;;6106245;28;20227;-66
2022/01/11 05:40:46;;;;;;;40.80;24.10;;;;;;;;;;6103795;28;20263;-66
2022/01/11 05:44:08;;;;;;;41.73;23.90;;;;;;;;;;6094244;28;20567;-66
2022/01/11 05:47:29;;;;;;;39.50;24.07;;;;;;;;;;6105306;28;20232;-66
2022/01/11 05:50:50;;;;;;;39.67;23.73;;;;;;;;;;6121201;28;20259;-66
2022/01/11 05:54:13;;;;;;;37.60;23.03;;;;;;;;;;6095701;28;20231;-65
2022/01/11 05:57:34;;;;;;;39.30;22.20;;;;;;;;;;6107484;28;20248;-66
2022/01/11 06:00:57;;;;;;;35.13;21.47;;;;;;;;;;6105233;28;20331;-66
2022/01/11 06:04:17;;;;;;;35.50;21.60;;;;;;;;;;6094883;28;20263;-65
2022/01/11 06:07:39;;;;;;;39.67;22.63;;;;;;;;;;6111037;28;20567;-65
2022/01/11 06:11:01;;;;;;;32.63;20.57;;;;;;;;;;6080447;28;20331;-67
2022/01/11 06:14:24;;;;;;;39.93;22.43;;;;;;;;;;6091089;29;20228;-65
2022/01/11 06:17:47;;;;;;;30.77;20.07;;;;;;;;;;6078350;28;20914;-66
2022/01/11 06:21:08;;;;;;;37.30;22.30;;;;;;;;;;6082523;28;20240;-65
2022/01/11 06:24:29;;;;;;;35.00;22.83;;;;;;;;;;6117511;28;20236;-65
2022/01/11 06:27:50;;;;;;;35.57;21.20;;;;;;;;;;6112942;28;20263;-65
2022/01/11 06:31:11;;;;;;;33.03;20.47;;;;;;;;;;6102791;28;20223;-66
2022/01/11 06:34:34;;;;;;;35.90;20.73;;;;;;;;;;6112680;28;20232;-67
2022/01/11 06:37:55;;;;;;;33.23;21.83;;;;;;;;;;6115956;28;20510;-66
2022/01/11 06:41:17;;;;;;;30.97;20.67;;;;;;;;;;6114506;28;20239;-66
2022/01/11 06:44:39;;;;;;;32.70;22.83;;;;;;;;;;6118801;28;20228;-66
2022/01/11 06:48:01;;;;;;;34.90;22.93;;;;;;;;;;6105077;28;20232;-65
2022/01/11 06:51:24;;;;;;;42.27;24.47;;;;;;;;;;6106987;28;20258;-67
2022/01/11 06:54:45;;;;;;;32.10;23.27;;;;;;;;;;6118534;28;20259;-65
2022/01/11 06:58:06;;;;;;;30.90;20.90;;;;;;;;;;6114050;28;20621;-66
2022/01/11 07:01:27;;;;;;;38.27;23.63;;;;;;;;;;6105821;28;20239;-66
2022/01/11 07:04:56;;;;;;;33.30;24.07;;;;;;;;;;6117029;28;20231;-66
2022/01/11 07:08:18;;;;;;;34.20;21.37;;;;;;;;;;6122001;28;20623;-68
2022/01/11 07:11:40;;;;;;;35.80;23.30;;;;;;;;;;6107728;28;20566;-66
2022/01/11 07:15:01;;;;;;;40.00;23.37;;;;;;;;;;6118107;28;20240;-66
2022/01/11 07:18:23;;;;;;;31.93;21.83;;;;;;;;;;6121675;28;20235;-67
2022/01/11 07:21:46;;;;;;;54.43;26.50;;;;;;;;;;6113005;28;21343;-66
2022/01/11 07:25:08;;;;;;;43.90;23.87;;;;;;;;;;6107704;28;20239;-67
2022/01/11 07:28:31;;;;;;;37.80;24.43;;;;;;;;;;6120806;28;20228;-66
2022/01/11 07:31:52;;;;;;;37.17;22.70;;;;;;;;;;6126179;28;20235;-67
2022/01/11 07:35:15;;;;;;;35.53;23.23;;;;;;;;;;6107145;28;20223;-67
2022/01/11 07:38:36;;;;;;;33.07;22.07;;;;;;;;;;6110441;28;20236;-67
2022/01/11 07:42:03;;;;;;;37.47;24.03;;;;;;;;;;6088864;28;20302;-67
2022/01/11 07:45:35;;;;;;;33.27;23.87;;;;;;;;;;6109341;28;20232;-66
2022/01/11 07:48:59;;;;;;;34.23;21.37;;;;;;;;;;6108450;28;20276;-66
2022/01/11 07:52:21;;;;;;;33.00;20.60;;;;;;;;;;6113054;28;20231;-67
2022/01/11 07:55:43;;;;;;;38.30;23.70;;;;;;;;;;6124840;28;20232;-66
2022/01/11 07:59:10;;;;;;;35.30;22.00;;;;;;;;;;6084783;28;20236;-66
2022/01/11 08:02:34;;;;;;;46.77;25.03;;;;;;;;;;6102771;28;20247;-65
2022/01/11 08:05:55;;;;;;;35.80;22.53;;;;;;;;;;6102565;28;20242;-67
2022/01/11 08:09:20;;;;;;;29.60;20.60;;;;;;;;;;6085266;28;20379;-66
2022/01/11 08:12:41;;;;;;;29.53;19.80;;;;;;;;;;6122481;28;20235;-66
2022/01/11 08:16:04;;;;;;;25.87;18.73;;;;;;;;;;6125128;28;20240;-65
2022/01/11 08:19:26;;;;;;;28.13;18.20;;;;;;;;;;6108418;28;20235;-66
2022/01/11 08:22:51;;;;;;;28.47;20.20;;;;;;;;;;6122009;28;20236;-65
2022/01/11 08:26:12;;;;;;;31.53;20.87;;;;;;;;;;6127833;28;20231;-65
2022/01/11 08:29:33;;;;;;;32.67;20.90;;;;;;;;;;6124974;28;20847;-66
2022/01/11 08:32:57;;;;;;;32.67;21.67;;;;;;;;;;6111578;28;20235;-66
2022/01/11 08:36:17;;;;;;;37.27;21.57;;;;;;;;;;6115214;28;20655;-66
2022/01/11 08:39:38;;;;;;;38.77;22.57;;;;;;;;;;6122284;28;20227;-67
2022/01/11 08:42:59;;;;;;;56.67;28.13;;;;;;;;;;6121068;28;20240;-67
2022/01/11 08:46:20;;;;;;;33.87;22.73;;;;;;;;;;6120472;28;20243;-66
2022/01/11 08:49:55;;;;;;;31.57;21.63;;;;;;;;;;6122928;28;20510;-67
2022/01/11 08:53:16;;;;;;;30.97;22.53;;;;;;;;;;6107278;28;20248;-66
2022/01/11 08:56:37;;;;;;;33.67;20.57;;;;;;;;;;6121752;28;20240;-66
2022/01/11 08:59:58;;;;;;;35.37;20.70;;;;;;;;;;6121450;28;20236;-67
2022/01/11 09:03:23;;;;;;;30.77;20.87;;;;;;;;;;6124585;28;20240;-66
2022/01/11 09:06:45;;;;;;;27.40;18.60;;;;;;;;;;6104457;28;20250;-66
2022/01/11 09:10:08;;;;;;;26.50;18.93;;;;;;;;;;6121697;28;22067;-66
2022/01/11 09:13:29;;;;;;;27.70;17.73;;;;;;;;;;6126542;28;20239;-66
2022/01/11 09:16:49;;;;;;;24.73;17.80;;;;;;;;;;6125754;28;20916;-68
2022/01/11 09:20:11;;;;;;;23.83;17.97;;;;;;;;;;6108082;28;20322;-66
2022/01/11 09:23:34;;;;;;;24.50;16.93;;;;;;;;;;6123143;28;20512;-66
2022/01/11 09:26:57;;;;;;;23.67;17.80;;;;;;;;;;6114501;28;20633;-66
2022/01/11 09:30:19;;;;;;;21.27;16.73;;;;;;;;;;6112145;28;20695;-67
2022/01/11 09:33:43;;;;;;;22.57;15.80;;;;;;;;;;6122174;28;20232;-67
2022/01/11 09:37:04;;;;;;;23.23;17.33;;;;;;;;;;6119161;28;20239;-66
2022/01/11 09:40:27;;;;;;;27.23;17.23;;;;;;;;;;6125212;28;20498;-66
2022/01/11 09:43:57;;;;;;;23.47;15.10;;;;;;;;;;6116455;28;20232;-66
2022/01/11 09:47:18;;;;;;;23.87;16.13;;;;;;;;;;6125157;28;20251;-67
2022/01/11 09:50:42;;;;;;;24.23;14.73;;;;;;;;;;6123206;28;20267;-66
2022/01/11 09:54:06;;;;;;;24.47;14.83;;;;;;;;;;6124546;28;20595;-67
2022/01/11 09:57:28;;;;;;;19.90;14.97;;;;;;;;;;6126733;28;20231;-66
2022/01/11 10:01:07;;;;;;;20.43;14.83;;;;;;;;;;6125245;28;20228;-67
2022/01/11 10:04:44;;;;;;;19.20;14.40;;;;;;;;;;6105532;28;20228;-66
2022/01/11 10:08:37;;;;;;;19.33;15.77;;;;;;;;;;6111281;28;20231;-66
2022/01/11 10:11:58;;;;;;;22.53;14.13;;;;;;;;;;6115823;28;20256;-66
2022/01/11 10:15:28;;;;;;;20.63;16.00;;;;;;;;;;6124281;28;20275;-66
2022/01/11 10:18:50;;;;;;;20.37;14.00;;;;;;;;;;6107524;28;20515;-67
2022/01/11 10:22:12;;;;;;;21.13;15.57;;;;;;;;;;6104337;28;20310;-66
2022/01/11 10:25:42;;;;;;;22.60;15.53;;;;;;;;;;6105223;28;20255;-68
2022/01/11 10:29:22;;;;;;;22.37;13.97;;;;;;;;;;6121609;28;20239;-68
2022/01/11 10:32:46;;;;;;;23.07;15.33;;;;;;;;;;6100927;28;20247;-66
2022/01/11 10:36:16;;;;;;;21.73;15.83;;;;;;;;;;6102500;28;20487;-67
2022/01/11 10:40:00;;;;;;;17.87;13.33;;;;;;;;;;6115379;28;20346;-65
2022/01/11 10:43:23;;;;;;;19.93;14.43;;;;;;;;;;6097966;28;20242;-67
2022/01/11 10:46:44;;;;;;;20.17;14.37;;;;;;;;;;6104240;28;20532;-66
2022/01/11 10:50:09;;;;;;;23.47;15.10;;;;;;;;;;6112126;28;20619;-67
2022/01/11 10:53:32;;;;;;;18.80;12.43;;;;;;;;;;6098159;28;20268;-66
2022/01/11 10:56:54;;;;;;;17.73;13.23;;;;;;;;;;6096369;28;20232;-66
2022/01/11 11:00:17;;;;;;;19.13;13.33;;;;;;;;;;6103594;28;20228;-67
2022/01/11 11:03:39;;;;;;;17.43;12.53;;;;;;;;;;6118687;28;20322;-67
2022/01/11 11:07:23;;;;;;;16.27;12.77;;;;;;;;;;6120155;28;20233;-66
2022/01/11 11:11:00;;;;;;;15.37;11.03;;;;;;;;;;6117237;28;20308;-67
2022/01/11 11:14:21;;;;;;;20.50;13.33;;;;;;;;;;6078961;28;20232;-66
2022/01/11 11:17:59;;;;;;;19.97;11.37;;;;;;;;;;6108889;28;20564;-68
2022/01/11 11:21:27;;;;;;;14.83;12.40;;;;;;;;;;6096722;28;20582;-67
2022/01/11 11:24:48;;;;;;;16.07;12.33;;;;;;;;;;6104203;28;20232;-67
2022/01/11 11:28:09;;;;;;;17.17;12.83;;;;;;;;;;6105828;28;20361;-67
2022/01/11 11:31:30;;;;;;;20.17;12.83;;;;;;;;;;6104561;28;20236;-67
2022/01/11 11:34:52;;;;;;;17.50;12.63;;;;;;;;;;6103069;28;20239;-65
2022/01/11 11:38:12;;;;;;;20.00;11.97;;;;;;;;;;6110760;28;20231;-67
2022/01/11 11:41:34;;;;;;;16.97;11.90;;;;;;;;;;6107595;28;20235;-67
2022/01/11 11:44:57;;;;;;;20.60;12.00;;;;;;;;;;6107342;28;20240;-66
2022/01/11 11:48:19;;;;;;;18.30;13.20;;;;;;;;;;6107365;28;20323;-66
2022/01/11 11:51:40;;;;;;;14.63;11.57;;;;;;;;;;6099612;28;20248;-67
2022/01/11 11:55:02;;;;;;;13.03;10.23;;;;;;;;;;6102258;28;20236;-66
2022/01/11 11:58:23;;;;;;;15.53;10.50;;;;;;;;;;6111882;28;20232;-67
2022/01/11 12:01:46;;;;;;;18.57;10.40;;;;;;;;;;6101883;28;20231;-67
2022/01/11 12:05:09;;;;;;;15.83;9.90;;;;;;;;;;6099206;28;20232;-65
2022/01/11 12:08:35;;;;;;;14.57;9.73;;;;;;;;;;6106262;28;20240;-67
2022/01/11 12:11:59;;;;;;;17.57;11.43;;;;;;;;;;6116705;28;20232;-66
2022/01/11 12:15:40;;;;;;;13.97;9.83;;;;;;;;;;6106447;28;20239;-67
2022/01/11 12:19:04;;;;;;;12.70;8.90;;;;;;;;;;6096507;28;20240;-67
2022/01/11 12:22:27;;;;;;;18.33;10.00;;;;;;;;;;6104948;28;20594;-68
2022/01/11 12:25:52;;;;;;;15.03;11.37;;;;;;;;;;6111351;28;20232;-67
2022/01/11 12:29:23;;;;;;;13.40;9.97;;;;;;;;;;6087061;28;20236;-67
2022/01/11 12:32:58;;;;;;;13.20;9.27;;;;;;;;;;6105696;28;20258;-66
2022/01/11 12:36:20;;;;;;;17.37;11.23;;;;;;;;;;6106535;28;20793;-67
2022/01/11 12:39:58;;;;;;;13.63;9.63;;;;;;;;;;6102613;28;20315;-67
2022/01/11 12:43:40;;;;;;;15.83;10.30;;;;;;;;;;6087656;28;20237;-66
2022/01/11 12:47:02;;;;;;;14.90;10.73;;;;;;;;;;6110523;28;20623;-66
2022/01/11 12:50:22;;;;;;;17.40;10.33;;;;;;;;;;6113742;28;20244;-67
2022/01/11 12:53:45;;;;;;;11.93;8.30;;;;;;;;;;6109553;28;20625;-65
2022/01/11 12:57:09;;;;;;;10.63;8.20;;;;;;;;;;6110112;28;20236;-67
2022/01/11 13:00:29;;;;;;;13.90;8.30;;;;;;;;;;6105420;28;20228;-68
2022/01/11 13:03:50;;;;;;;11.87;8.73;;;;;;;;;;6099634;28;20232;-66
2022/01/11 13:07:12;;;;;;;13.17;9.63;;;;;;;;;;6100518;28;20729;-67
2022/01/11 13:10:34;;;;;;;15.80;10.33;;;;;;;;;;6099606;28;20240;-67
2022/01/11 13:14:17;;;;;;;13.33;10.20;;;;;;;;;;6101439;28;20239;-67
2022/01/11 13:17:54;;;;;;;15.70;11.47;;;;;;;;;;6099187;28;20316;-67
2022/01/11 13:21:14;;;;;;;10.33;8.30;;;;;;;;;;6105598;28;20228;-67
2022/01/11 13:24:36;;;;;;;9.77;8.73;;;;;;;;;;6106155;28;20236;-67
2022/01/11 13:27:58;;;;;;;8.93;7.20;;;;;;;;;;6098482;28;20240;-67
2022/01/11 13:31:21;;;;;;;11.73;9.20;;;;;;;;;;6094067;28;21072;-67
2022/01/11 13:34:41;;;;;;;11.47;8.57;;;;;;;;;;6109929;28;20311;-68
2022/01/11 13:38:09;;;;;;;12.03;8.97;;;;;;;;;;6099496;28;20232;-67
2022/01/11 13:41:30;;;;;;;12.03;9.43;;;;;;;;;;6099578;28;20239;-66
2022/01/11 13:44:52;;;;;;;11.33;8.83;;;;;;;;;;6101580;28;20267;-66
2022/01/11 13:48:15;;;;;;;13.67;9.57;;;;;;;;;;6113405;28;20295;-67
2022/01/11 13:51:35;;;;;;;9.87;8.47;;;;;;;;;;6100502;28;20231;-66
2022/01/11 13:54:56;;;;;;;14.73;8.93;;;;;;;;;;6097721;28;20235;-67
2022/01/11 13:58:17;;;;;;;12.53;9.63;;;;;;;;;;6111007;28;20285;-66
2022/01/11 14:01:39;;;;;;;9.87;8.40;;;;;;;;;;6107258;28;20325;-68
2022/01/11 14:05:01;;;;;;;18.47;11.43;;;;;;;;;;6114868;28;20232;-67
2022/01/11 14:08:28;;;;;;;12.87;9.40;;;;;;;;;;6111401;28;20231;-67
2022/01/11 14:12:05;;;;;;;14.33;10.73;;;;;;;;;;6106889;28;20618;-67
2022/01/11 14:15:28;;;;;;;15.47;9.57;;;;;;;;;;6106208;28;20330;-67
2022/01/11 14:19:02;;;;;;;12.07;9.47;;;;;;;;;;6111586;28;20228;-66
2022/01/11 14:22:36;;;;;;;13.77;10.70;;;;;;;;;;6103629;28;20231;-67
2022/01/11 14:25:56;;;;;;;15.50;10.17;;;;;;;;;;6101819;28;20240;-68
2022/01/11 14:29:17;;;;;;;12.97;10.20;;;;;;;;;;6094189;28;20235;-68
2022/01/11 14:32:48;;;;;;;17.07;10.60;;;;;;;;;;6101807;28;20228;-67
2022/01/11 14:36:15;;;;;;;16.17;10.90;;;;;;;;;;6104441;28;20314;-66
2022/01/11 14:39:36;;;;;;;11.83;9.97;;;;;;;;;;6105695;28;20673;-67
2022/01/11 14:43:07;;;;;;;13.57;12.10;;;;;;;;;;6107625;28;20248;-67
2022/01/11 14:46:27;;;;;;;16.83;10.77;;;;;;;;;;6094551;28;20236;-68
2022/01/11 14:49:48;;;;;;;12.00;9.83;;;;;;;;;;6104029;28;20256;-65
2022/01/11 14:53:12;;;;;;;15.23;9.60;;;;;;;;;;6102045;28;20654;-68
2022/01/11 14:56:36;;;;;;;13.43;10.33;;;;;;;;;;6106581;28;20727;-67
2022/01/11 14:59:56;;;;;;;15.53;10.80;;;;;;;;;;6099467;28;20232;-68
2022/01/11 15:03:27;;;;;;;11.83;10.63;;;;;;;;;;6106681;28;20626;-68
2022/01/11 15:06:48;;;;;;;17.37;12.30;;;;;;;;;;6120241;28;20228;-68
2022/01/11 15:10:10;;;;;;;14.77;11.13;;;;;;;;;;6105013;28;20225;-67
2022/01/11 15:13:37;;;;;;;14.83;12.10;;;;;;;;;;6115340;28;20244;-68
2022/01/11 15:16:58;;;;;;;11.70;9.87;;;;;;;;;;6102887;28;20231;-67
2022/01/11 15:20:18;;;;;;;19.00;11.23;;;;;;;;;;6097950;28;20260;-66
2022/01/11 15:23:39;;;;;;;14.97;11.50;;;;;;;;;;6102054;28;20232;-67
2022/01/11 15:27:01;;;;;;;13.90;10.50;;;;;;;;;;6115000;28;20240;-67
2022/01/11 15:30:22;;;;;;;21.00;13.97;;;;;;;;;;6114781;28;20595;-66
2022/01/11 15:33:43;;;;;;;14.80;11.17;;;;;;;;;;6111234;28;20232;-67
2022/01/11 15:37:04;;;;;;;18.27;12.07;;;;;;;;;;6108057;28;20224;-67
2022/01/11 15:40:26;;;;;;;16.20;13.43;;;;;;;;;;6103405;28;20225;-69
2022/01/11 15:43:48;;;;;;;16.20;12.73;;;;;;;;;;6109181;28;20223;-67
2022/01/11 15:47:10;;;;;;;13.70;10.97;;;;;;;;;;6107103;28;20287;-66
2022/01/11 15:50:30;;;;;;;22.63;13.93;;;;;;;;;;6105963;28;20827;-67
2022/01/11 15:53:51;;;;;;;14.57;12.83;;;;;;;;;;6106839;28;20220;-68
2022/01/11 15:57:13;;;;;;;25.67;12.43;;;;;;;;;;6106164;28;20244;-67
2022/01/11 16:00:35;;;;;;;15.73;12.37;;;;;;;;;;6106253;28;20306;-67
2022/01/11 16:03:56;;;;;;;15.20;12.27;;;;;;;;;;6108711;28;20239;-67
2022/01/11 16:07:17;;;;;;;17.67;13.17;;;;;;;;;;6114632;28;20228;-67
2022/01/11 16:10:39;;;;;;;18.83;13.43;;;;;;;;;;6110312;28;20240;-68
2022/01/11 16:14:02;;;;;;;15.13;11.70;;;;;;;;;;6110408;28;20232;-67
2022/01/11 16:17:24;;;;;;;16.80;12.23;;;;;;;;;;6108420;28;20367;-67
2022/01/11 16:20:44;;;;;;;20.43;15.00;;;;;;;;;;6109245;28;20252;-67
2022/01/11 16:24:06;;;;;;;21.90;15.20;;;;;;;;;;6106467;28;20514;-67
2022/01/11 16:27:27;;;;;;;18.93;14.07;;;;;;;;;;6111891;28;20244;-66
2022/01/11 16:30:49;;;;;;;21.23;14.70;;;;;;;;;;6106301;28;20248;-68
2022/01/11 16:34:12;;;;;;;20.47;14.23;;;;;;;;;;6097896;28;20259;-67
2022/01/11 16:37:33;;;;;;;19.33;13.57;;;;;;;;;;6107733;28;20315;-67
2022/01/11 16:44:35;;;;;;;22.13;14.90;;;;;;;;;;6099313;28;20833;-67
2022/01/11 16:47:55;;;;;;;19.73;13.53;;;;;;;;;;6106719;28;20236;-69
2022/01/11 16:51:18;;;;;;;18.73;13.77;;;;;;;;;;6108736;28;20618;-67
2022/01/11 16:54:38;;;;;;;19.73;14.67;;;;;;;;;;6107455;28;20244;-67
2022/01/11 16:57:59;;;;;;;22.53;16.57;;;;;;;;;;6110101;28;20246;-65
2022/01/11 17:01:19;;;;;;;22.37;16.07;;;;;;;;;;6101181;28;20453;-67
2022/01/11 17:04:40;;;;;;;24.37;15.50;;;;;;;;;;6117370;28;20236;-66
2022/01/11 17:08:02;;;;;;;26.20;17.67;;;;;;;;;;6110984;28;20236;-66
2022/01/11 17:11:22;;;;;;;27.00;15.77;;;;;;;;;;6105937;28;20231;-66
2022/01/11 17:14:43;;;;;;;27.10;17.73;;;;;;;;;;6091075;28;20236;-67
2022/01/11 17:18:03;;;;;;;21.40;15.27;;;;;;;;;;6108313;28;20526;-67
2022/01/11 17:21:24;;;;;;;23.73;17.87;;;;;;;;;;6106163;28;20509;-68
2022/01/11 17:24:46;;;;;;;22.33;17.43;;;;;;;;;;6108608;28;20319;-67
2022/01/11 17:28:07;;;;;;;26.00;18.13;;;;;;;;;;6107872;28;20338;-66
2022/01/11 17:31:28;;;;;;;31.60;19.40;;;;;;;;;;6106118;28;20236;-66
2022/01/11 17:34:51;;;;;;;25.03;16.80;;;;;;;;;;6119948;28;20244;-67
2022/01/11 17:38:12;;;;;;;27.70;18.97;;;;;;;;;;6103860;28;20610;-66
2022/01/11 17:41:34;;;;;;;26.03;19.00;;;;;;;;;;6105131;28;20629;-67
2022/01/11 17:44:54;;;;;;;28.37;19.03;;;;;;;;;;6103386;28;20235;-68
2022/01/11 17:48:15;;;;;;;29.93;17.93;;;;;;;;;;6103898;28;20267;-67
2022/01/11 17:51:36;;;;;;;27.87;20.40;;;;;;;;;;6105979;28;20256;-68
2022/01/11 17:54:56;;;;;;;29.00;18.20;;;;;;;;;;6098545;28;20610;-67
2022/01/11 17:58:18;;;;;;;40.80;28.13;;;;;;;;;;6104559;28;20228;-68
2022/01/11 18:01:42;;;;;;;28.70;19.20;;;;;;;;;;6097918;28;20232;-67
2022/01/11 18:05:02;;;;;;;32.30;20.00;;;;;;;;;;6095393;28;20240;-68
2022/01/11 18:08:23;;;;;;;31.73;19.80;;;;;;;;;;6099118;28;20597;-68
2022/01/11 18:11:44;;;;;;;42.23;31.03;;;;;;;;;;6096245;28;20580;-68
2022/01/11 18:15:08;;;;;;;30.73;19.13;;;;;;;;;;6106636;28;20606;-66
2022/01/11 18:18:28;;;;;;;28.87;20.70;;;;;;;;;;6109840;28;20236;-67
2022/01/11 18:21:49;;;;;;;31.20;22.33;;;;;;;;;;6105608;28;20251;-67
2022/01/11 18:25:10;;;;;;;31.53;21.33;;;;;;;;;;6096093;28;20251;-67
2022/01/11 18:28:31;;;;;;;30.93;21.40;;;;;;;;;;6107886;28;20235;-67
2022/01/11 18:31:53;;;;;;;32.77;21.27;;;;;;;;;;6105598;28;20509;-68
2022/01/11 18:35:13;;;;;;;30.53;22.13;;;;;;;;;;6107347;28;20602;-67
2022/01/11 18:38:34;;;;;;;33.83;25.03;;;;;;;;;;6097406;28;20248;-66
2022/01/11 18:41:55;;;;;;;39.00;23.23;;;;;;;;;;6073568;28;20239;-69
2022/01/11 18:45:15;;;;;;;33.47;22.67;;;;;;;;;;6089839;28;20236;-68
2022/01/11 18:48:38;;;;;;;29.83;21.67;;;;;;;;;;6101109;28;20689;-67
2022/01/11 18:51:59;;;;;;;31.90;23.00;;;;;;;;;;6104552;28;21510;-67
2022/01/11 18:55:20;;;;;;;32.37;24.73;;;;;;;;;;6108726;28;20239;-68
2022/01/11 18:58:42;;;;;;;33.97;23.17;;;;;;;;;;6110294;28;20224;-69
2022/01/11 19:02:05;;;;;;;37.80;23.80;;;;;;;;;;6106784;28;20235;-67
2022/01/11 19:05:28;;;;;;;34.80;25.27;;;;;;;;;;6112510;28;20231;-69
2022/01/11 19:08:51;;;;;;;35.33;25.53;;;;;;;;;;6102838;28;20239;-71
2022/01/11 19:12:13;;;;;;;38.17;24.30;;;;;;;;;;6104806;28;20244;-71
2022/01/11 19:15:34;;;;;;;37.47;24.10;;;;;;;;;;6105784;28;20220;-69
2022/01/11 19:18:55;;;;;;;32.00;23.43;;;;;;;;;;6107335;28;20232;-69
2022/01/11 19:22:18;;;;;;;36.83;23.87;;;;;;;;;;6107593;28;20244;-71
2022/01/11 19:25:38;;;;;;;43.63;27.00;;;;;;;;;;6107285;28;20621;-69
2022/01/11 19:28:59;;;;;;;37.27;25.63;;;;;;;;;;6106956;28;20261;-70
2022/01/11 19:32:20;;;;;;;37.60;24.93;;;;;;;;;;6109489;28;20228;-71
2022/01/11 19:35:40;;;;;;;35.93;24.00;;;;;;;;;;6108787;28;20231;-70
2022/01/11 19:39:02;;;;;;;38.17;25.27;;;;;;;;;;6098383;28;20227;-71
2022/01/11 19:42:24;;;;;;;36.93;24.80;;;;;;;;;;6107293;28;20322;-71
2022/01/11 19:45:45;;;;;;;37.23;23.60;;;;;;;;;;6111442;28;20228;-70
2022/01/11 19:49:05;;;;;;;33.23;23.67;;;;;;;;;;6109293;28;20247;-71
2022/01/11 19:52:27;;;;;;;43.67;28.27;;;;;;;;;;6106204;28;20220;-70